sensor_id;sensor_type;location;lat;lon;timestamp;temperature;humidity
5711;DHT22;61291;52.524;13.422;2022-08-21T00:02:03;20.00;99.90
5711;DHT22;61291;52.524;13.422;2022-08-21T00:04:29;20.00;99.90
5711;DHT22;61291;52.524;13.422;2022-08-21T00:06:56;20.00;99.90
5711;DHT22;61291;52.524;13.422;2022-08-21T00:09:22;20.00;99.90
5711;DHT22;61291;52.524;13.422;2022-08-21T00:11:48;20.00;99.90
5711;DHT22;61291;52.524;13.422;2022-08-21T00:14:14;20.00;99.90
5711;DHT22;61291;52.524;13.422;2022-08-21T00:16:40;20.00;99.90
5711;DHT22;61291;52.524;13.422;2022-08-21T00:19:07;20.00;99.90
5711;DHT22;61291;52.524;13.422;2022-08-21T00:21:34;19.90;99.90
5711;DHT22;61291;52.524;13.422;2022-08-21T00:24:00;19.90;99.90
5711;DHT22;61291;52.524;13.422;2022-08-21T00:26:26;19.90;99.90
5711;DHT22;61291;52.524;13.422;2022-08-21T00:28:52;20.00;99.90
5711;DHT22;61291;52.524;13.422;2022-08-21T00:31:18;19.90;99.90
5711;DHT22;61291;52.524;13.422;2022-08-21T00:33:45;19.90;99.90
5711;DHT22;61291;52.524;13.422;2022-08-21T00:36:11;19.80;99.90
5711;DHT22;61291;52.524;13.422;2022-08-21T00:38:37;19.80;99.90
5711;DHT22;61291;52.524;13.422;2022-08-21T00:41:06;19.70;99.90
5711;DHT22;61291;52.524;13.422;2022-08-21T00:43:34;19.70;99.90
5711;DHT22;61291;52.524;13.422;2022-08-21T00:46:01;19.70;99.90
5711;DHT22;61291;52.524;13.422;2022-08-21T00:48:27;19.70;99.90
5711;DHT22;61291;52.524;13.422;2022-08-21T00:50:57;19.70;99.90
5711;DHT22;61291;52.524;13.422;2022-08-21T00:53:24;19.60;99.90
5711;DHT22;61291;52.524;13.422;2022-08-21T00:55:52;19.70;99.90
5711;DHT22;61291;52.524;13.422;2022-08-21T00:58:19;19.70;99.90
5711;DHT22;61291;52.524;13.422;2022-08-21T01:00:49;19.70;99.90
5711;DHT22;61291;52.524;13.422;2022-08-21T01:03:21;19.70;99.90
5711;DHT22;61291;52.524;13.422;2022-08-21T01:05:47;19.70;99.90
5711;DHT22;61291;52.524;13.422;2022-08-21T01:08:15;19.70;99.90
5711;DHT22;61291;52.524;13.422;2022-08-21T01:10:43;19.70;99.90
5711;DHT22;61291;52.524;13.422;2022-08-21T01:13:10;19.70;99.90
5711;DHT22;61291;52.524;13.422;2022-08-21T01:15:40;19.60;99.90
5711;DHT22;61291;52.524;13.422;2022-08-21T01:18:10;19.50;99.90
5711;DHT22;61291;52.524;13.422;2022-08-21T01:20:37;19.40;99.90
5711;DHT22;61291;52.524;13.422;2022-08-21T01:23:05;19.40;99.90
5711;DHT22;61291;52.524;13.422;2022-08-21T01:25:32;19.30;99.90
5711;DHT22;61291;52.524;13.422;2022-08-21T01:28:04;19.30;99.90
5711;DHT22;61291;52.524;13.422;2022-08-21T01:30:33;19.30;99.90
5711;DHT22;61291;52.524;13.422;2022-08-21T01:33:00;19.20;99.90
5711;DHT22;61291;52.524;13.422;2022-08-21T01:35:25;19.20;99.90
5711;DHT22;61291;52.524;13.422;2022-08-21T01:37:51;19.10;99.90
5711;DHT22;61291;52.524;13.422;2022-08-21T01:40:17;19.10;99.90
5711;DHT22;61291;52.524;13.422;2022-08-21T01:42:44;19.10;99.90
5711;DHT22;61291;52.524;13.422;2022-08-21T01:45:10;19.10;99.90
5711;DHT22;61291;52.524;13.422;2022-08-21T01:47:36;19.00;99.90
5711;DHT22;61291;52.524;13.422;2022-08-21T01:50:06;19.00;99.90
5711;DHT22;61291;52.524;13.422;2022-08-21T01:52:32;18.90;99.90
5711;DHT22;61291;52.524;13.422;2022-08-21T01:54:58;18.90;99.90
5711;DHT22;61291;52.524;13.422;2022-08-21T01:57:24;18.90;99.90
5711;DHT22;61291;52.524;13.422;2022-08-21T01:59:49;18.90;99.90
5711;DHT22;61291;52.524;13.422;2022-08-21T02:02:15;18.80;99.90
5711;DHT22;61291;52.524;13.422;2022-08-21T02:04:41;18.80;99.90
5711;DHT22;61291;52.524;13.422;2022-08-21T02:07:06;18.80;99.90
5711;DHT22;61291;52.524;13.422;2022-08-21T02:09:32;18.80;99.90
5711;DHT22;61291;52.524;13.422;2022-08-21T02:11:58;18.70;99.90
5711;DHT22;61291;52.524;13.422;2022-08-21T02:14:24;18.70;99.90
5711;DHT22;61291;52.524;13.422;2022-08-21T02:16:50;18.70;99.90
5711;DHT22;61291;52.524;13.422;2022-08-21T02:19:16;18.60;99.90
5711;DHT22;61291;52.524;13.422;2022-08-21T02:21:41;18.60;99.90
5711;DHT22;61291;52.524;13.422;2022-08-21T02:24:08;18.50;99.90
5711;DHT22;61291;52.524;13.422;2022-08-21T02:26:34;18.50;99.90
5711;DHT22;61291;52.524;13.422;2022-08-21T02:29:00;18.40;99.90
5711;DHT22;61291;52.524;13.422;2022-08-21T02:31:26;18.40;99.90
5711;DHT22;61291;52.524;13.422;2022-08-21T02:33:52;18.40;99.90
5711;DHT22;61291;52.524;13.422;2022-08-21T02:36:17;18.40;99.90
5711;DHT22;61291;52.524;13.422;2022-08-21T02:38:43;18.40;99.90
5711;DHT22;61291;52.524;13.422;2022-08-21T02:41:16;18.40;99.90
5711;DHT22;61291;52.524;13.422;2022-08-21T02:43:42;18.40;99.90
5711;DHT22;61291;52.524;13.422;2022-08-21T02:46:10;18.40;99.90
5711;DHT22;61291;52.524;13.422;2022-08-21T02:48:36;18.30;99.90
5711;DHT22;61291;52.524;13.422;2022-08-21T02:51:07;18.40;99.90
5711;DHT22;61291;52.524;13.422;2022-08-21T02:53:34;18.30;99.90
5711;DHT22;61291;52.524;13.422;2022-08-21T02:56:02;18.30;99.90
5711;DHT22;61291;52.524;13.422;2022-08-21T02:58:32;18.20;99.90
5711;DHT22;61291;52.524;13.422;2022-08-21T03:00:58;18.20;99.90
5711;DHT22;61291;52.524;13.422;2022-08-21T03:03:25;18.10;99.90
5711;DHT22;61291;52.524;13.422;2022-08-21T03:05:51;18.10;99.90
5711;DHT22;61291;52.524;13.422;2022-08-21T03:08:17;18.00;99.90
5711;DHT22;61291;52.524;13.422;2022-08-21T03:10:46;18.00;99.90
5711;DHT22;61291;52.524;13.422;2022-08-21T03:13:12;18.00;99.90
5711;DHT22;61291;52.524;13.422;2022-08-21T03:15:38;18.00;99.90
5711;DHT22;61291;52.524;13.422;2022-08-21T03:18:05;17.90;99.90
5711;DHT22;61291;52.524;13.422;2022-08-21T03:20:32;17.90;99.90
5711;DHT22;61291;52.524;13.422;2022-08-21T03:22:59;17.90;99.90
5711;DHT22;61291;52.524;13.422;2022-08-21T03:25:26;17.90;99.90
5711;DHT22;61291;52.524;13.422;2022-08-21T03:27:52;17.80;99.90
5711;DHT22;61291;52.524;13.422;2022-08-21T03:30:19;17.80;99.90
5711;DHT22;61291;52.524;13.422;2022-08-21T03:32:45;17.80;99.90
5711;DHT22;61291;52.524;13.422;2022-08-21T03:35:11;17.90;99.90
5711;DHT22;61291;52.524;13.422;2022-08-21T03:37:38;17.80;99.90
5711;DHT22;61291;52.524;13.422;2022-08-21T03:40:05;17.80;99.90
5711;DHT22;61291;52.524;13.422;2022-08-21T03:42:31;17.70;99.90
5711;DHT22;61291;52.524;13.422;2022-08-21T03:44:56;17.70;99.90
5711;DHT22;61291;52.524;13.422;2022-08-21T03:47:22;17.70;99.90
5711;DHT22;61291;52.524;13.422;2022-08-21T03:49:47;17.70;99.90
5711;DHT22;61291;52.524;13.422;2022-08-21T03:52:13;17.60;99.90
5711;DHT22;61291;52.524;13.422;2022-08-21T03:54:39;17.60;99.90
5711;DHT22;61291;52.524;13.422;2022-08-21T03:57:07;17.60;99.90
5711;DHT22;61291;52.524;13.422;2022-08-21T03:59:34;17.60;99.90
5711;DHT22;61291;52.524;13.422;2022-08-21T04:02:01;17.60;99.90
5711;DHT22;61291;52.524;13.422;2022-08-21T04:04:27;17.50;99.90
5711;DHT22;61291;52.524;13.422;2022-08-21T04:06:54;17.60;99.90
5711;DHT22;61291;52.524;13.422;2022-08-21T04:09:19;17.60;99.90
5711;DHT22;61291;52.524;13.422;2022-08-21T04:11:45;17.60;99.90
5711;DHT22;61291;52.524;13.422;2022-08-21T04:14:13;17.50;99.90
5711;DHT22;61291;52.524;13.422;2022-08-21T04:16:39;17.60;99.90
5711;DHT22;61291;52.524;13.422;2022-08-21T04:19:05;17.60;99.90
5711;DHT22;61291;52.524;13.422;2022-08-21T04:21:31;17.70;99.90
5711;DHT22;61291;52.524;13.422;2022-08-21T04:23:57;17.70;99.90
5711;DHT22;61291;52.524;13.422;2022-08-21T04:26:23;17.70;99.90
5711;DHT22;61291;52.524;13.422;2022-08-21T04:28:49;17.70;99.90
5711;DHT22;61291;52.524;13.422;2022-08-21T04:31:14;17.70;99.90
5711;DHT22;61291;52.524;13.422;2022-08-21T04:33:40;17.70;99.90
5711;DHT22;61291;52.524;13.422;2022-08-21T04:36:06;17.70;99.90
5711;DHT22;61291;52.524;13.422;2022-08-21T04:38:32;17.70;99.90
5711;DHT22;61291;52.524;13.422;2022-08-21T04:40:58;17.80;99.90
5711;DHT22;61291;52.524;13.422;2022-08-21T04:43:23;17.80;99.90
5711;DHT22;61291;52.524;13.422;2022-08-21T04:45:50;17.80;99.90
5711;DHT22;61291;52.524;13.422;2022-08-21T04:48:18;17.90;99.90
5711;DHT22;61291;52.524;13.422;2022-08-21T04:56:10;18.10;99.90
5711;DHT22;61291;52.524;13.422;2022-08-21T04:58:38;18.10;99.90
5711;DHT22;61291;52.524;13.422;2022-08-21T05:01:07;18.20;99.90
5711;DHT22;61291;52.524;13.422;2022-08-21T05:03:34;18.30;99.90
5711;DHT22;61291;52.524;13.422;2022-08-21T05:06:04;18.30;99.90
5711;DHT22;61291;52.524;13.422;2022-08-21T05:08:31;18.40;99.90
5711;DHT22;61291;52.524;13.422;2022-08-21T05:10:56;18.40;99.90
5711;DHT22;61291;52.524;13.422;2022-08-21T05:13:22;18.50;99.90
5711;DHT22;61291;52.524;13.422;2022-08-21T05:15:48;18.50;99.90
5711;DHT22;61291;52.524;13.422;2022-08-21T05:18:13;18.50;99.90
5711;DHT22;61291;52.524;13.422;2022-08-21T05:20:39;18.60;99.90
5711;DHT22;61291;52.524;13.422;2022-08-21T05:23:09;18.60;99.90
5711;DHT22;61291;52.524;13.422;2022-08-21T05:25:35;18.60;99.90
5711;DHT22;61291;52.524;13.422;2022-08-21T05:28:01;18.70;99.90
5711;DHT22;61291;52.524;13.422;2022-08-21T05:30:26;18.70;99.90
5711;DHT22;61291;52.524;13.422;2022-08-21T05:32:57;18.80;99.90
5711;DHT22;61291;52.524;13.422;2022-08-21T05:35:23;18.90;99.90
5711;DHT22;61291;52.524;13.422;2022-08-21T05:37:49;19.00;99.90
5711;DHT22;61291;52.524;13.422;2022-08-21T05:40:14;19.00;99.90
5711;DHT22;61291;52.524;13.422;2022-08-21T05:42:40;19.10;99.90
5711;DHT22;61291;52.524;13.422;2022-08-21T05:45:06;19.10;99.90
5711;DHT22;61291;52.524;13.422;2022-08-21T05:47:31;19.20;99.90
5711;DHT22;61291;52.524;13.422;2022-08-21T05:49:57;19.30;99.90
5711;DHT22;61291;52.524;13.422;2022-08-21T05:52:22;19.30;99.90
5711;DHT22;61291;52.524;13.422;2022-08-21T05:54:49;19.50;99.90
5711;DHT22;61291;52.524;13.422;2022-08-21T05:57:14;19.50;99.90
5711;DHT22;61291;52.524;13.422;2022-08-21T05:59:40;19.70;99.90
5711;DHT22;61291;52.524;13.422;2022-08-21T06:02:06;19.80;99.90
5711;DHT22;61291;52.524;13.422;2022-08-21T06:04:36;19.90;99.90
5711;DHT22;61291;52.524;13.422;2022-08-21T06:07:02;19.90;99.90
5711;DHT22;61291;52.524;13.422;2022-08-21T06:09:28;20.00;99.90
5711;DHT22;61291;52.524;13.422;2022-08-21T06:11:53;20.10;99.90
5711;DHT22;61291;52.524;13.422;2022-08-21T06:14:19;20.00;99.90
5711;DHT22;61291;52.524;13.422;2022-08-21T06:16:44;20.10;99.90
5711;DHT22;61291;52.524;13.422;2022-08-21T06:19:09;20.30;99.90
5711;DHT22;61291;52.524;13.422;2022-08-21T06:21:35;20.40;99.90
5711;DHT22;61291;52.524;13.422;2022-08-21T06:24:00;20.60;99.90
5711;DHT22;61291;52.524;13.422;2022-08-21T06:26:26;20.70;99.90
5711;DHT22;61291;52.524;13.422;2022-08-21T06:28:53;20.70;99.90
5711;DHT22;61291;52.524;13.422;2022-08-21T06:31:22;20.80;99.90
5711;DHT22;61291;52.524;13.422;2022-08-21T06:33:49;20.90;99.90
5711;DHT22;61291;52.524;13.422;2022-08-21T06:36:15;21.30;99.90
5711;DHT22;61291;52.524;13.422;2022-08-21T06:38:41;21.30;99.90
5711;DHT22;61291;52.524;13.422;2022-08-21T06:41:07;21.30;99.90
5711;DHT22;61291;52.524;13.422;2022-08-21T06:43:33;21.10;99.90
5711;DHT22;61291;52.524;13.422;2022-08-21T06:45:59;21.30;99.90
5711;DHT22;61291;52.524;13.422;2022-08-21T06:48:25;21.70;99.90
5711;DHT22;61291;52.524;13.422;2022-08-21T06:50:50;21.70;99.90
5711;DHT22;61291;52.524;13.422;2022-08-21T06:53:19;21.90;99.90
5711;DHT22;61291;52.524;13.422;2022-08-21T06:55:45;22.30;99.90
5711;DHT22;61291;52.524;13.422;2022-08-21T06:58:11;22.60;99.90
5711;DHT22;61291;52.524;13.422;2022-08-21T07:00:42;22.60;99.90
5711;DHT22;61291;52.524;13.422;2022-08-21T07:03:17;22.70;99.90
5711;DHT22;61291;52.524;13.422;2022-08-21T07:05:46;22.80;99.90
5711;DHT22;61291;52.524;13.422;2022-08-21T07:08:11;22.90;99.90
5711;DHT22;61291;52.524;13.422;2022-08-21T07:10:37;23.10;99.90
5711;DHT22;61291;52.524;13.422;2022-08-21T07:13:02;23.50;99.90
5711;DHT22;61291;52.524;13.422;2022-08-21T07:15:29;23.70;99.90
5711;DHT22;61291;52.524;13.422;2022-08-21T07:17:54;23.40;99.90
5711;DHT22;61291;52.524;13.422;2022-08-21T07:20:20;23.90;99.20
5711;DHT22;61291;52.524;13.422;2022-08-21T07:22:45;23.90;99.10
5711;DHT22;61291;52.524;13.422;2022-08-21T07:25:11;23.90;98.80
5711;DHT22;61291;52.524;13.422;2022-08-21T07:27:36;23.70;98.40
5711;DHT22;61291;52.524;13.422;2022-08-21T07:30:03;24.10;98.20
5711;DHT22;61291;52.524;13.422;2022-08-21T07:32:29;24.30;97.20
5711;DHT22;61291;52.524;13.422;2022-08-21T07:34:55;24.00;96.90
5711;DHT22;61291;52.524;13.422;2022-08-21T07:37:20;24.10;96.50
5711;DHT22;61291;52.524;13.422;2022-08-21T07:39:46;24.30;96.10
5711;DHT22;61291;52.524;13.422;2022-08-21T07:42:14;24.70;95.60
5711;DHT22;61291;52.524;13.422;2022-08-21T07:44:40;24.60;94.40
5711;DHT22;61291;52.524;13.422;2022-08-21T07:47:05;24.90;92.20
5711;DHT22;61291;52.524;13.422;2022-08-21T07:49:30;24.90;92.10
5711;DHT22;61291;52.524;13.422;2022-08-21T07:51:57;25.10;91.90
5711;DHT22;61291;52.524;13.422;2022-08-21T07:54:23;25.00;91.20
5711;DHT22;61291;52.524;13.422;2022-08-21T07:56:48;24.90;91.10
5711;DHT22;61291;52.524;13.422;2022-08-21T07:59:14;25.20;90.60
5711;DHT22;61291;52.524;13.422;2022-08-21T08:01:39;24.90;90.10
5711;DHT22;61291;52.524;13.422;2022-08-21T08:04:05;25.10;90.00
5711;DHT22;61291;52.524;13.422;2022-08-21T08:06:31;25.10;89.50
5711;DHT22;61291;52.524;13.422;2022-08-21T08:08:56;24.80;88.40
5711;DHT22;61291;52.524;13.422;2022-08-21T08:11:22;24.80;87.60
5711;DHT22;61291;52.524;13.422;2022-08-21T08:13:49;25.20;87.80
5711;DHT22;61291;52.524;13.422;2022-08-21T08:16:15;25.10;87.00
5711;DHT22;61291;52.524;13.422;2022-08-21T08:18:41;25.10;86.10
5711;DHT22;61291;52.524;13.422;2022-08-21T08:21:08;25.10;85.60
5711;DHT22;61291;52.524;13.422;2022-08-21T08:23:34;24.50;85.80
5711;DHT22;61291;52.524;13.422;2022-08-21T08:26:00;25.00;85.40
5711;DHT22;61291;52.524;13.422;2022-08-21T08:28:28;25.10;83.10
5711;DHT22;61291;52.524;13.422;2022-08-21T08:30:54;25.00;84.20
5711;DHT22;61291;52.524;13.422;2022-08-21T08:33:19;25.10;84.00
5711;DHT22;61291;52.524;13.422;2022-08-21T08:35:47;25.30;83.90
5711;DHT22;61291;52.524;13.422;2022-08-21T08:38:14;25.00;83.30
5711;DHT22;61291;52.524;13.422;2022-08-21T08:43:33;25.30;82.10
5711;DHT22;61291;52.524;13.422;2022-08-21T08:46:04;25.00;82.10
5711;DHT22;61291;52.524;13.422;2022-08-21T08:53:54;25.20;80.30
5711;DHT22;61291;52.524;13.422;2022-08-21T08:56:29;25.30;79.80
5711;DHT22;61291;52.524;13.422;2022-08-21T08:59:05;25.70;79.40
5711;DHT22;61291;52.524;13.422;2022-08-21T09:01:32;25.90;78.60
5711;DHT22;61291;52.524;13.422;2022-08-21T09:03:58;25.80;79.50
5711;DHT22;61291;52.524;13.422;2022-08-21T09:06:28;25.90;78.40
5711;DHT22;61291;52.524;13.422;2022-08-21T09:09:25;25.90;77.60
5711;DHT22;61291;52.524;13.422;2022-08-21T09:12:12;26.30;75.00
5711;DHT22;61291;52.524;13.422;2022-08-21T09:14:57;25.20;76.10
5711;DHT22;61291;52.524;13.422;2022-08-21T09:20:23;26.70;76.10
5711;DHT22;61291;52.524;13.422;2022-08-21T09:26:02;26.80;74.70
5711;DHT22;61291;52.524;13.422;2022-08-21T09:28:34;27.30;74.10
5711;DHT22;61291;52.524;13.422;2022-08-21T09:31:02;27.30;74.00
5711;DHT22;61291;52.524;13.422;2022-08-21T09:33:28;27.40;73.40
5711;DHT22;61291;52.524;13.422;2022-08-21T09:35:56;27.80;72.90
5711;DHT22;61291;52.524;13.422;2022-08-21T09:38:28;28.00;71.30
5711;DHT22;61291;52.524;13.422;2022-08-21T09:41:01;28.00;70.50
5711;DHT22;61291;52.524;13.422;2022-08-21T09:43:26;28.00;70.40
5711;DHT22;61291;52.524;13.422;2022-08-21T09:46:20;27.80;69.60
5711;DHT22;61291;52.524;13.422;2022-08-21T09:48:48;27.60;69.20
5711;DHT22;61291;52.524;13.422;2022-08-21T09:51:23;27.80;69.60
5711;DHT22;61291;52.524;13.422;2022-08-21T09:53:57;28.30;68.70
5711;DHT22;61291;52.524;13.422;2022-08-21T09:59:33;27.80;68.60
5711;DHT22;61291;52.524;13.422;2022-08-21T10:02:14;27.70;66.90
5711;DHT22;61291;52.524;13.422;2022-08-21T10:04:50;28.30;65.50
5711;DHT22;61291;52.524;13.422;2022-08-21T10:07:23;28.20;65.80
5711;DHT22;61291;52.524;13.422;2022-08-21T10:10:00;27.60;66.00
5711;DHT22;61291;52.524;13.422;2022-08-21T10:15:13;27.60;64.00
5711;DHT22;61291;52.524;13.422;2022-08-21T10:17:59;28.10;65.00
5711;DHT22;61291;52.524;13.422;2022-08-21T10:21:04;28.10;65.20
5711;DHT22;61291;52.524;13.422;2022-08-21T10:24:03;27.60;65.80
5711;DHT22;61291;52.524;13.422;2022-08-21T10:26:37;28.50;65.80
5711;DHT22;61291;52.524;13.422;2022-08-21T10:29:19;28.30;64.90
5711;DHT22;61291;52.524;13.422;2022-08-21T10:34:36;28.40;64.10
5711;DHT22;61291;52.524;13.422;2022-08-21T10:37:46;28.10;63.60
5711;DHT22;61291;52.524;13.422;2022-08-21T10:40:26;28.60;63.10
5711;DHT22;61291;52.524;13.422;2022-08-21T10:43:02;28.60;63.40
5711;DHT22;61291;52.524;13.422;2022-08-21T10:45:39;28.80;62.50
5711;DHT22;61291;52.524;13.422;2022-08-21T10:48:10;28.30;62.00
5711;DHT22;61291;52.524;13.422;2022-08-21T10:50:51;28.60;60.40
5711;DHT22;61291;52.524;13.422;2022-08-21T10:53:31;28.00;61.50
5711;DHT22;61291;52.524;13.422;2022-08-21T11:01:22;28.80;61.50
5711;DHT22;61291;52.524;13.422;2022-08-21T11:04:10;28.60;61.70
5711;DHT22;61291;52.524;13.422;2022-08-21T11:06:39;28.30;60.70
5711;DHT22;61291;52.524;13.422;2022-08-21T11:09:15;28.10;60.90
5711;DHT22;61291;52.524;13.422;2022-08-21T11:12:07;27.80;61.90
5711;DHT22;61291;52.524;13.422;2022-08-21T11:14:49;28.30;60.30
5711;DHT22;61291;52.524;13.422;2022-08-21T11:17:20;28.70;59.10
5711;DHT22;61291;52.524;13.422;2022-08-21T11:20:02;28.60;59.00
5711;DHT22;61291;52.524;13.422;2022-08-21T11:22:33;28.10;58.10
5711;DHT22;61291;52.524;13.422;2022-08-21T11:25:26;28.00;58.50
5711;DHT22;61291;52.524;13.422;2022-08-21T11:28:05;27.60;57.70
5711;DHT22;61291;52.524;13.422;2022-08-21T11:30:54;28.00;58.40
5711;DHT22;61291;52.524;13.422;2022-08-21T11:36:11;28.00;58.80
5711;DHT22;61291;52.524;13.422;2022-08-21T11:38:42;28.20;57.70
5711;DHT22;61291;52.524;13.422;2022-08-21T11:41:28;28.10;57.30
5711;DHT22;61291;52.524;13.422;2022-08-21T11:44:11;27.70;55.00
5711;DHT22;61291;52.524;13.422;2022-08-21T11:49:36;28.10;56.00
5711;DHT22;61291;52.524;13.422;2022-08-21T11:52:23;27.80;56.20
5711;DHT22;61291;52.524;13.422;2022-08-21T11:55:13;27.90;56.40
5711;DHT22;61291;52.524;13.422;2022-08-21T11:58:35;28.40;56.20
5711;DHT22;61291;52.524;13.422;2022-08-21T12:01:04;28.30;56.00
5711;DHT22;61291;52.524;13.422;2022-08-21T12:03:34;28.40;56.80
5711;DHT22;61291;52.524;13.422;2022-08-21T12:06:05;27.40;56.10
5711;DHT22;61291;52.524;13.422;2022-08-21T12:08:34;27.80;56.40
5711;DHT22;61291;52.524;13.422;2022-08-21T12:11:09;27.40;56.30
5711;DHT22;61291;52.524;13.422;2022-08-21T12:13:38;27.30;56.30
5711;DHT22;61291;52.524;13.422;2022-08-21T12:16:12;27.30;56.80
5711;DHT22;61291;52.524;13.422;2022-08-21T12:18:38;27.00;56.30
5711;DHT22;61291;52.524;13.422;2022-08-21T12:21:24;27.10;56.60
5711;DHT22;61291;52.524;13.422;2022-08-21T12:24:18;27.00;56.60
5711;DHT22;61291;52.524;13.422;2022-08-21T12:26:54;27.10;56.40
5711;DHT22;61291;52.524;13.422;2022-08-21T12:29:27;27.50;56.10
5711;DHT22;61291;52.524;13.422;2022-08-21T12:32:04;27.60;56.00
5711;DHT22;61291;52.524;13.422;2022-08-21T12:34:35;27.80;56.10
5711;DHT22;61291;52.524;13.422;2022-08-21T12:37:27;27.90;56.10
5711;DHT22;61291;52.524;13.422;2022-08-21T12:39:52;27.70;56.30
5711;DHT22;61291;52.524;13.422;2022-08-21T12:42:23;27.80;56.60
5711;DHT22;61291;52.524;13.422;2022-08-21T12:47:36;27.30;55.80
5711;DHT22;61291;52.524;13.422;2022-08-21T12:50:25;27.20;55.80
5711;DHT22;61291;52.524;13.422;2022-08-21T12:53:14;27.00;56.10
5711;DHT22;61291;52.524;13.422;2022-08-21T12:55:42;26.60;56.30
5711;DHT22;61291;52.524;13.422;2022-08-21T12:58:21;26.60;56.60
5711;DHT22;61291;52.524;13.422;2022-08-21T13:00:50;26.40;56.80
5711;DHT22;61291;52.524;13.422;2022-08-21T13:03:17;26.00;55.70
5711;DHT22;61291;52.524;13.422;2022-08-21T13:05:43;25.70;56.50
5711;DHT22;61291;52.524;13.422;2022-08-21T13:08:10;25.70;57.10
5711;DHT22;61291;52.524;13.422;2022-08-21T13:10:37;25.40;57.90
5711;DHT22;61291;52.524;13.422;2022-08-21T13:13:06;25.20;58.30
5711;DHT22;61291;52.524;13.422;2022-08-21T13:15:35;25.10;58.40
5711;DHT22;61291;52.524;13.422;2022-08-21T13:18:03;24.90;58.50
5711;DHT22;61291;52.524;13.422;2022-08-21T13:20:34;24.80;59.40
5711;DHT22;61291;52.524;13.422;2022-08-21T13:23:02;24.90;59.30
5711;DHT22;61291;52.524;13.422;2022-08-21T13:25:30;25.00;59.50
5711;DHT22;61291;52.524;13.422;2022-08-21T13:28:10;25.10;59.70
5711;DHT22;61291;52.524;13.422;2022-08-21T13:30:48;25.30;59.40
5711;DHT22;61291;52.524;13.422;2022-08-21T13:33:17;25.20;59.70
5711;DHT22;61291;52.524;13.422;2022-08-21T13:35:51;25.10;59.90
5711;DHT22;61291;52.524;13.422;2022-08-21T13:38:20;25.10;60.00
5711;DHT22;61291;52.524;13.422;2022-08-21T13:40:50;25.30;59.90
5711;DHT22;61291;52.524;13.422;2022-08-21T13:43:19;25.30;59.70
5711;DHT22;61291;52.524;13.422;2022-08-21T13:45:52;25.50;59.90
5711;DHT22;61291;52.524;13.422;2022-08-21T13:48:18;25.50;59.20
5711;DHT22;61291;52.524;13.422;2022-08-21T13:50:45;25.60;59.60
5711;DHT22;61291;52.524;13.422;2022-08-21T13:53:28;25.40;61.10
5711;DHT22;61291;52.524;13.422;2022-08-21T13:55:55;25.10;60.80
5711;DHT22;61291;52.524;13.422;2022-08-21T13:58:31;25.40;60.30
5711;DHT22;61291;52.524;13.422;2022-08-21T14:00:59;25.30;61.10
5711;DHT22;61291;52.524;13.422;2022-08-21T14:03:38;25.40;61.20
5711;DHT22;61291;52.524;13.422;2022-08-21T14:06:17;25.50;61.90
5711;DHT22;61291;52.524;13.422;2022-08-21T14:08:49;25.50;62.40
5711;DHT22;61291;52.524;13.422;2022-08-21T14:11:16;25.60;62.30
5711;DHT22;61291;52.524;13.422;2022-08-21T14:13:57;25.60;62.70
5711;DHT22;61291;52.524;13.422;2022-08-21T14:16:27;25.70;63.80
5711;DHT22;61291;52.524;13.422;2022-08-21T14:21:36;25.80;63.10
5711;DHT22;61291;52.524;13.422;2022-08-21T14:24:05;25.90;63.10
5711;DHT22;61291;52.524;13.422;2022-08-21T14:26:34;26.00;62.90
5711;DHT22;61291;52.524;13.422;2022-08-21T14:29:00;25.80;62.40
5711;DHT22;61291;52.524;13.422;2022-08-21T14:31:29;25.80;62.30
5711;DHT22;61291;52.524;13.422;2022-08-21T14:33:55;25.70;62.20
5711;DHT22;61291;52.524;13.422;2022-08-21T14:36:21;25.60;62.60
5711;DHT22;61291;52.524;13.422;2022-08-21T14:38:46;25.60;63.40
5711;DHT22;61291;52.524;13.422;2022-08-21T14:41:21;25.30;62.80
5711;DHT22;61291;52.524;13.422;2022-08-21T14:43:48;25.30;63.30
5711;DHT22;61291;52.524;13.422;2022-08-21T14:46:20;24.90;63.60
5711;DHT22;61291;52.524;13.422;2022-08-21T14:48:46;24.80;64.20
5711;DHT22;61291;52.524;13.422;2022-08-21T14:51:12;24.80;64.70
5711;DHT22;61291;52.524;13.422;2022-08-21T14:53:38;24.70;64.50
5711;DHT22;61291;52.524;13.422;2022-08-21T14:56:04;24.70;65.40
5711;DHT22;61291;52.524;13.422;2022-08-21T14:58:30;24.70;65.60
5711;DHT22;61291;52.524;13.422;2022-08-21T15:00:56;24.80;65.60
5711;DHT22;61291;52.524;13.422;2022-08-21T15:03:23;24.80;65.60
5711;DHT22;61291;52.524;13.422;2022-08-21T15:05:49;24.80;65.80
5711;DHT22;61291;52.524;13.422;2022-08-21T15:08:15;24.80;65.90
5711;DHT22;61291;52.524;13.422;2022-08-21T15:10:41;24.70;66.10
5711;DHT22;61291;52.524;13.422;2022-08-21T15:13:07;24.80;66.30
5711;DHT22;61291;52.524;13.422;2022-08-21T15:15:38;24.80;66.40
5711;DHT22;61291;52.524;13.422;2022-08-21T15:18:04;24.80;67.30
5711;DHT22;61291;52.524;13.422;2022-08-21T15:20:29;24.80;66.70
5711;DHT22;61291;52.524;13.422;2022-08-21T15:22:55;24.80;66.50
5711;DHT22;61291;52.524;13.422;2022-08-21T15:25:21;24.80;66.40
5711;DHT22;61291;52.524;13.422;2022-08-21T15:27:46;24.80;66.40
5711;DHT22;61291;52.524;13.422;2022-08-21T15:30:12;24.70;66.60
5711;DHT22;61291;52.524;13.422;2022-08-21T15:32:38;24.60;67.00
5711;DHT22;61291;52.524;13.422;2022-08-21T15:35:04;24.60;67.20
5711;DHT22;61291;52.524;13.422;2022-08-21T15:37:30;24.70;67.00
5711;DHT22;61291;52.524;13.422;2022-08-21T15:39:56;24.70;67.00
5711;DHT22;61291;52.524;13.422;2022-08-21T15:42:22;24.70;66.90
5711;DHT22;61291;52.524;13.422;2022-08-21T15:44:48;24.70;67.20
5711;DHT22;61291;52.524;13.422;2022-08-21T15:47:18;24.80;67.10
5711;DHT22;61291;52.524;13.422;2022-08-21T15:49:44;24.90;67.20
5711;DHT22;61291;52.524;13.422;2022-08-21T15:52:15;24.90;67.20
5711;DHT22;61291;52.524;13.422;2022-08-21T15:54:41;24.90;67.30
5711;DHT22;61291;52.524;13.422;2022-08-21T15:57:09;24.80;67.20
5711;DHT22;61291;52.524;13.422;2022-08-21T15:59:42;24.70;67.30
5711;DHT22;61291;52.524;13.422;2022-08-21T16:02:21;24.60;67.10
5711;DHT22;61291;52.524;13.422;2022-08-21T16:04:48;24.60;67.10
5711;DHT22;61291;52.524;13.422;2022-08-21T16:07:13;24.50;67.20
5711;DHT22;61291;52.524;13.422;2022-08-21T16:09:39;24.40;67.30
5711;DHT22;61291;52.524;13.422;2022-08-21T16:12:05;24.30;67.30
5711;DHT22;61291;52.524;13.422;2022-08-21T16:14:33;24.30;67.30
5711;DHT22;61291;52.524;13.422;2022-08-21T16:16:59;24.20;67.50
5711;DHT22;61291;52.524;13.422;2022-08-21T16:19:26;24.20;67.70
5711;DHT22;61291;52.524;13.422;2022-08-21T16:21:52;24.20;67.70
5711;DHT22;61291;52.524;13.422;2022-08-21T16:24:18;24.10;67.80
5711;DHT22;61291;52.524;13.422;2022-08-21T16:26:43;24.00;68.10
5711;DHT22;61291;52.524;13.422;2022-08-21T16:29:09;23.90;68.10